createdAt,value
2022-11-16T00:07:27.336Z,3.14
2022-11-16T00:17:35.213Z,4.02
2022-11-16T00:27:42.982Z,3.98
2022-11-16T00:37:50.853Z,4.18
2022-11-16T00:48:00.543Z,4.78
2022-11-16T00:58:05.637Z,4.88
2022-11-16T01:08:13.671Z,4.54
2022-11-16T01:18:21.702Z,5.33
2022-11-16T01:28:29.779Z,5.99
2022-11-16T01:38:36.967Z,6.69
2022-11-16T01:48:43.885Z,6.3
2022-11-16T01:58:51.789Z,6.35
2022-11-16T02:08:59.961Z,5.62
2022-11-16T02:19:08.068Z,4.99
2022-11-16T02:29:16.234Z,4.53
2022-11-16T02:39:24.439Z,3.39
2022-11-16T02:49:32.426Z,2.55
2022-11-16T02:59:40.558Z,2.77
2022-11-16T03:09:48.584Z,2.39
2022-11-16T03:19:56.724Z,2.27
2022-11-16T03:30:04.851Z,2.67
2022-11-16T03:40:12.950Z,3.48
2022-11-16T03:50:23.995Z,3.03
2022-11-16T04:00:21.871Z,2.84
2022-11-16T04:10:49.878Z,3.04
2022-11-16T04:20:37.951Z,3.91
2022-11-16T04:30:45.999Z,6.72
2022-11-16T04:40:54.025Z,8.6
2022-11-16T04:51:02.102Z,5.16
2022-11-16T05:01:10.267Z,7.81
2022-11-16T05:11:18.261Z,5.63
2022-11-16T05:21:26.399Z,6.25
2022-11-16T05:31:39.178Z,4.96
2022-11-16T05:41:42.067Z,5.81
2022-11-16T05:51:50.040Z,3.39
2022-11-16T06:01:58.057Z,2.92
2022-11-16T06:12:06.256Z,2.16
2022-11-16T06:22:14.350Z,4.44
2022-11-16T06:32:22.443Z,4.63
2022-11-16T06:42:33.214Z,5.11
2022-11-16T06:52:32.357Z,5.13
2022-11-16T07:02:43.069Z,5.16
2022-11-16T07:12:42.387Z,2.96
2022-11-16T07:22:50.842Z,2.67
2022-11-16T07:32:58.926Z,2.08
2022-11-16T07:43:07.000Z,3.47
2022-11-16T07:53:17.530Z,3.02
2022-11-16T08:03:19.283Z,3.03
2022-11-16T08:13:23.686Z,9.96
2022-11-16T08:23:31.678Z,8.89
2022-11-16T08:33:39.798Z,10.28
2022-11-16T08:43:48.863Z,15.06
2022-11-16T08:53:56.870Z,9.95
2022-11-16T09:04:05.520Z,20.47
2022-11-16T09:14:13.674Z,14.34
2022-11-16T09:24:21.698Z,5.07
2022-11-16T09:34:29.726Z,4.14
2022-11-16T09:44:37.855Z,2.72
2022-11-16T09:54:45.800Z,1.66
2022-11-16T10:04:58.105Z,2.24
2022-11-16T10:15:02.104Z,1.9
2022-11-16T10:25:10.262Z,2.03
2022-11-16T10:35:18.390Z,2.45
2022-11-16T10:45:26.456Z,1.61
2022-11-16T10:55:35.889Z,1.5
2022-11-16T11:05:44.275Z,1.35
2022-11-16T11:15:52.292Z,1.12
2022-11-16T11:26:00.952Z,1.71
2022-11-16T11:36:09.072Z,1.79
2022-11-16T11:46:17.102Z,1.13
2022-11-16T11:56:25.281Z,1.33
2022-11-16T12:06:34.538Z,1.3
2022-11-16T12:16:45.693Z,1
2022-11-16T12:26:43.896Z,1.49
2022-11-16T12:36:52.255Z,1.45
2022-11-16T12:47:00.286Z,1.53
2022-11-16T12:57:08.300Z,1.45
2022-11-16T13:07:15.562Z,1.09
2022-11-16T13:17:23.589Z,1.19
2022-11-16T13:27:34.263Z,1.19
2022-11-16T13:37:32.428Z,1.64
2022-11-16T13:47:41.402Z,1.27
2022-11-16T13:57:49.634Z,1.16
2022-11-16T14:07:57.547Z,1.22
2022-11-16T14:18:07.848Z,1.3
2022-11-16T14:28:05.950Z,0.97
2022-11-16T14:38:14.020Z,1.36
2022-11-16T14:48:22.020Z,1.74
2022-11-16T14:58:32.532Z,1.46
2022-11-16T15:08:34.922Z,1.74
2022-11-16T15:18:33.116Z,2.49
2022-11-16T15:28:43.524Z,1.82
2022-11-16T15:38:48.825Z,2.67
2022-11-16T15:48:57.201Z,2.34
2022-11-16T15:59:05.556Z,1.4
2022-11-16T16:09:13.544Z,2.43
2022-11-16T16:19:22.910Z,2.22
2022-11-16T16:29:30.859Z,1.48
2022-11-16T16:39:38.985Z,2.35
2022-11-16T16:49:48.226Z,1.19
2022-11-16T16:59:56.201Z,0.91
2022-11-16T17:10:12.257Z,1.7
2022-11-16T17:20:13.984Z,1.35
2022-11-16T17:30:13.228Z,1.01
2022-11-16T17:40:25.418Z,1.15
2022-11-16T17:51:34.179Z,1.27
2022-11-16T18:00:27.973Z,1.46
2022-11-16T18:10:36.395Z,1.63
2022-11-16T18:20:44.814Z,1.3
2022-11-16T18:30:58.797Z,1.69
2022-11-16T18:41:08.930Z,2.39
2022-11-16T18:51:14.885Z,1.75
2022-11-16T19:01:19.616Z,1.08
2022-11-16T19:11:29.728Z,1.48
2022-11-16T19:21:29.861Z,1.61
2022-11-16T19:31:29.013Z,1.11
2022-11-16T19:41:51.630Z,0.72
2022-11-16T19:51:55.877Z,0.94
2022-11-16T20:01:47.122Z,1.22
2022-11-16T20:11:41.081Z,0.89
2022-11-16T20:21:43.954Z,0.99
2022-11-16T20:31:47.035Z,1.05
2022-11-16T20:41:46.890Z,0.91
2022-11-16T20:52:10.599Z,0.61
2022-11-16T21:02:02.003Z,0.9
2022-11-16T21:12:01.069Z,1.15
2022-11-16T21:22:11.876Z,0.89
2022-11-16T21:32:11.454Z,1.63
2022-11-16T21:42:21.477Z,1.12
2022-11-16T21:52:21.365Z,1.42
2022-11-16T22:02:28.395Z,1.65
2022-11-16T22:12:36.387Z,2.33
2022-11-16T22:22:44.993Z,2.16
2022-11-16T22:32:54.275Z,2.01
2022-11-16T22:43:02.198Z,1.64
2022-11-16T22:53:11.297Z,1.4
2022-11-16T23:03:19.817Z,1.32
2022-11-16T23:13:31.205Z,1.5
2022-11-16T23:23:29.393Z,1.97
2022-11-16T23:33:37.439Z,1.48
2022-11-16T23:43:44.916Z,1.3
2022-11-16T23:53:52.901Z,1.26
